Time;durP1;ratioP1;P1;durP2;ratioP2;P2;SDS_P1;SDS_P2;PMS_P1;PMS_P2;Temp;Humidity;BMP_temperature;BMP_pressure;BME280_temperature;BME280_humidity;BME280_pressure;Samples;Min_cycle;Max_cycle;Signal;HPM_P1;HPM_P2
2022/08/20 00:01:04;;;;;;;19.40;8.48;;;;;;;;;;6269056;22;20012;-89
2022/08/20 00:03:32;;;;;;;18.90;8.65;;;;;;;;;;6266446;22;20087;-89
2022/08/20 00:06:02;;;;;;;21.30;9.50;;;;;;;;;;6271033;22;20065;-89
2022/08/20 00:08:28;;;;;;;22.00;9.15;;;;;;;;;;6269972;22;20391;-88
2022/08/20 00:10:55;;;;;;;19.02;8.43;;;;;;;;;;6269587;22;20007;-89
2022/08/20 00:13:25;;;;;;;19.55;7.22;;;;;;;;;;6270630;22;20346;-89
2022/08/20 00:15:51;;;;;;;20.30;8.30;;;;;;;;;;6267921;22;20010;-89
2022/08/20 00:18:18;;;;;;;20.85;8.02;;;;;;;;;;6270605;22;20121;-89
2022/08/20 00:20:45;;;;;;;29.92;9.13;;;;;;;;;;6243411;22;20343;-89
2022/08/20 00:23:12;;;;;;;16.58;7.00;;;;;;;;;;6268978;22;20035;-89
2022/08/20 00:25:39;;;;;;;22.35;8.02;;;;;;;;;;6243732;22;20016;-89
2022/08/20 00:28:06;;;;;;;17.83;7.35;;;;;;;;;;6269704;22;20019;-87
2022/08/20 00:30:33;;;;;;;21.92;7.57;;;;;;;;;;6270023;22;20427;-89
2022/08/20 00:33:01;;;;;;;26.85;7.97;;;;;;;;;;6243791;22;20030;-90
2022/08/20 00:35:28;;;;;;;21.75;7.72;;;;;;;;;;6270858;22;20011;-89
2022/08/20 00:38:00;;;;;;;17.75;6.97;;;;;;;;;;6271890;22;20000;-89
2022/08/20 00:40:33;;;;;;;19.15;6.78;;;;;;;;;;6241610;22;20038;-89
2022/08/20 00:43:00;;;;;;;21.92;7.15;;;;;;;;;;6271960;22;20003;-90
2022/08/20 00:45:28;;;;;;;24.30;7.20;;;;;;;;;;6243329;22;20065;-89
2022/08/20 00:47:54;;;;;;;20.45;7.18;;;;;;;;;;6269980;22;20043;-89
2022/08/20 00:50:23;;;;;;;17.52;6.30;;;;;;;;;;6270012;22;20064;-89
2022/08/20 00:52:50;;;;;;;22.20;6.95;;;;;;;;;;6269088;22;20064;-89
2022/08/20 00:55:18;;;;;;;25.77;7.90;;;;;;;;;;6270355;22;20118;-89
2022/08/20 00:57:50;;;;;;;17.45;6.68;;;;;;;;;;6270444;22;20011;-89
2022/08/20 01:00:19;;;;;;;25.27;8.13;;;;;;;;;;6267255;22;20011;-89
2022/08/20 01:02:46;;;;;;;17.40;6.50;;;;;;;;;;6269030;22;20094;-89
2022/08/20 01:05:15;;;;;;;21.88;7.10;;;;;;;;;;6270084;22;20004;-89
2022/08/20 01:07:43;;;;;;;20.77;8.85;;;;;;;;;;6244361;22;20011;-89
2022/08/20 01:10:22;;;;;;;25.20;7.10;;;;;;;;;;6243685;22;20095;-89
2022/08/20 01:12:50;;;;;;;18.75;6.93;;;;;;;;;;6271509;22;20087;-89
2022/08/20 01:15:18;;;;;;;22.00;7.18;;;;;;;;;;6269975;22;20110;-89
2022/08/20 01:17:48;;;;;;;20.67;6.82;;;;;;;;;;6268630;22;20018;-89
2022/08/20 01:20:23;;;;;;;23.35;7.60;;;;;;;;;;6268214;22;20012;-89
2022/08/20 01:23:28;;;;;;;21.67;7.78;;;;;;;;;;6268971;22;20475;-89
2022/08/20 01:26:04;;;;;;;24.77;9.52;;;;;;;;;;6215020;22;20304;-89
2022/08/20 01:28:30;;;;;;;;;;;;;;;;;;6270077;22;20712;-89
2022/08/20 01:30:56;;;;;;;21.55;7.22;;;;;;;;;;6268106;22;19926;-88
2022/08/20 01:33:23;;;;;;;22.30;6.88;;;;;;;;;;6270342;22;20007;-89
2022/08/20 01:35:49;;;;;;;23.30;7.65;;;;;;;;;;6243259;22;20045;-89
2022/08/20 01:38:16;;;;;;;23.40;7.53;;;;;;;;;;6269083;22;20031;-89
2022/08/20 01:41:01;;;;;;;35.25;8.38;;;;;;;;;;6271234;22;20091;-89
2022/08/20 01:43:27;;;;;;;29.25;7.88;;;;;;;;;;6271936;22;20056;-89
2022/08/20 01:45:53;;;;;;;22.38;7.57;;;;;;;;;;6246754;22;20422;-89
2022/08/20 01:48:21;;;;;;;20.80;7.68;;;;;;;;;;6275842;22;20038;-89
2022/08/20 01:50:54;;;;;;;31.00;8.07;;;;;;;;;;6275035;22;20007;-89
2022/08/20 01:53:32;;;;;;;21.02;7.93;;;;;;;;;;6273120;22;20011;-89
2022/08/20 01:55:59;;;;;;;17.52;8.02;;;;;;;;;;6275067;22;20010;-89
2022/08/20 01:58:26;;;;;;;15.15;7.13;;;;;;;;;;6273294;22;20435;-89
2022/08/20 02:00:52;;;;;;;28.65;8.48;;;;;;;;;;6274479;22;20003;-89
2022/08/20 02:03:18;;;;;;;19.10;8.60;;;;;;;;;;6275585;22;20015;-89
2022/08/20 02:05:44;;;;;;;17.10;7.80;;;;;;;;;;6274680;22;20011;-89
2022/08/20 02:08:10;;;;;;;16.25;7.22;;;;;;;;;;6249636;22;20018;-89
2022/08/20 02:10:36;;;;;;;20.10;7.45;;;;;;;;;;6248696;22;20423;-89
2022/08/20 02:13:04;;;;;;;28.42;7.85;;;;;;;;;;6250131;22;20060;-89
2022/08/20 02:15:30;;;;;;;20.63;7.72;;;;;;;;;;6275111;22;20496;-89
2022/08/20 02:17:56;;;;;;;25.83;7.90;;;;;;;;;;6274900;22;20007;-89
2022/08/20 02:20:26;;;;;;;15.88;6.82;;;;;;;;;;6248615;22;20007;-89
2022/08/20 02:22:54;;;;;;;22.52;7.22;;;;;;;;;;6275534;22;20451;-89
2022/08/20 02:25:21;;;;;;;32.63;7.72;;;;;;;;;;6271567;22;20339;-89
2022/08/20 02:27:48;;;;;;;29.63;7.82;;;;;;;;;;6274179;22;20030;-89
2022/08/20 02:30:16;;;;;;;29.83;7.65;;;;;;;;;;6271666;22;20037;-89
2022/08/20 02:32:42;;;;;;;23.77;7.18;;;;;;;;;;6273854;22;20427;-89
2022/08/20 02:35:10;;;;;;;31.30;7.05;;;;;;;;;;6248581;22;20023;-89
2022/08/20 02:37:38;;;;;;;21.60;7.03;;;;;;;;;;6249727;22;20098;-89
2022/08/20 02:40:06;;;;;;;18.17;6.97;;;;;;;;;;6275112;22;20007;-89
2022/08/20 02:42:33;;;;;;;20.10;6.72;;;;;;;;;;6274034;22;20458;-89
2022/08/20 02:44:59;;;;;;;14.75;6.90;;;;;;;;;;6273575;22;20019;-88
2022/08/20 02:47:26;;;;;;;16.63;7.32;;;;;;;;;;6249776;22;20015;-89
2022/08/20 02:49:53;;;;;;;21.90;8.55;;;;;;;;;;6275242;22;20358;-89
2022/08/20 02:52:19;;;;;;;22.50;7.35;;;;;;;;;;6275256;22;20477;-89
2022/08/20 02:54:47;;;;;;;25.40;7.72;;;;;;;;;;6275064;22;20525;-89
2022/08/20 02:57:14;;;;;;;22.80;8.10;;;;;;;;;;6274200;22;20007;-89
2022/08/20 02:59:40;;;;;;;20.80;8.45;;;;;;;;;;6273993;22;20038;-89
2022/08/20 03:02:06;;;;;;;19.77;7.65;;;;;;;;;;6247721;22;20158;-89
2022/08/20 03:04:32;;;;;;;25.83;7.88;;;;;;;;;;6247280;22;20013;-89
2022/08/20 03:06:59;;;;;;;28.85;8.70;;;;;;;;;;6273079;22;20054;-89
2022/08/20 03:09:25;;;;;;;26.58;7.82;;;;;;;;;;6273332;22;20014;-89
2022/08/20 03:11:51;;;;;;;24.60;7.35;;;;;;;;;;6273055;22;20353;-89
2022/08/20 03:14:18;;;;;;;18.67;7.20;;;;;;;;;;6271907;22;20316;-89
2022/08/20 03:16:44;;;;;;;21.05;7.47;;;;;;;;;;6273132;22;20309;-89
2022/08/20 03:19:10;;;;;;;21.38;7.35;;;;;;;;;;6300454;22;20091;-89
2022/08/20 03:21:36;;;;;;;22.50;7.97;;;;;;;;;;6248352;22;20088;-89
2022/08/20 03:24:02;;;;;;;27.10;8.10;;;;;;;;;;6247101;22;20025;-89
2022/08/20 03:26:28;;;;;;;19.23;8.27;;;;;;;;;;6271172;22;20370;-89
2022/08/20 03:28:54;;;;;;;24.02;8.32;;;;;;;;;;6273893;22;20017;-89
2022/08/20 03:31:20;;;;;;;12.95;7.03;;;;;;;;;;6299766;22;20037;-89
2022/08/20 03:33:46;;;;;;;19.27;6.78;;;;;;;;;;6247841;22;20528;-89
2022/08/20 03:36:12;;;;;;;20.15;6.95;;;;;;;;;;6245645;22;20518;-89
2022/08/20 03:38:38;;;;;;;32.75;7.78;;;;;;;;;;6249550;22;20022;-89
2022/08/20 03:41:04;;;;;;;28.15;7.60;;;;;;;;;;6248585;22;20286;-89
2022/08/20 03:43:31;;;;;;;21.60;7.15;;;;;;;;;;6274566;22;20126;-89
2022/08/20 03:45:57;;;;;;;19.35;6.40;;;;;;;;;;6271938;22;20109;-89
2022/08/20 03:48:24;;;;;;;25.88;7.38;;;;;;;;;;6249778;22;20012;-89
2022/08/20 03:50:50;;;;;;;23.63;6.25;;;;;;;;;;6249724;22;20019;-89
2022/08/20 03:53:16;;;;;;;20.63;6.53;;;;;;;;;;6248724;22;20015;-89
2022/08/20 03:55:45;;;;;;;19.25;6.38;;;;;;;;;;6276375;22;20031;-89
2022/08/20 03:58:12;;;;;;;21.05;6.70;;;;;;;;;;6274495;22;20007;-89
2022/08/20 04:00:43;;;;;;;26.73;6.40;;;;;;;;;;6275226;22;20422;-89
2022/08/20 04:03:09;;;;;;;19.58;6.25;;;;;;;;;;6274905;22;20010;-89
2022/08/20 04:05:39;;;;;;;18.05;5.95;;;;;;;;;;6275556;22;20427;-89
2022/08/20 04:08:07;;;;;;;22.63;7.00;;;;;;;;;;6249794;22;20018;-89
2022/08/20 04:10:33;;;;;;;28.38;6.15;;;;;;;;;;6274376;22;20022;-89
2022/08/20 04:12:59;;;;;;;20.73;6.03;;;;;;;;;;6250265;22;20054;-89
2022/08/20 04:15:25;;;;;;;17.65;5.10;;;;;;;;;;6249910;22;20007;-89
2022/08/20 04:17:52;;;;;;;18.45;4.93;;;;;;;;;;6274328;22;20278;-89
2022/08/20 04:20:22;;;;;;;22.25;4.70;;;;;;;;;;6273676;22;20084;-90
2022/08/20 04:22:49;;;;;;;16.33;4.55;;;;;;;;;;6273626;22;20379;-89
2022/08/20 04:25:15;;;;;;;27.83;5.10;;;;;;;;;;6273783;22;20004;-89
2022/08/20 04:27:41;;;;;;;22.48;4.43;;;;;;;;;;6248951;22;20011;-89
2022/08/20 04:30:09;;;;;;;20.55;4.47;;;;;;;;;;6249851;22;20330;-89
2022/08/20 04:32:36;;;;;;;16.95;4.47;;;;;;;;;;6274068;22;20104;-89
2022/08/20 04:35:06;;;;;;;18.33;4.82;;;;;;;;;;6301248;22;20041;-89
2022/08/20 04:37:32;;;;;;;16.67;4.00;;;;;;;;;;6273319;22;20342;-89
2022/08/20 04:42:46;;;;;;;11.50;3.85;;;;;;;;;;6301847;22;20060;-89
2022/08/20 04:45:12;;;;;;;13.77;3.67;;;;;;;;;;6249249;22;20017;-89
2022/08/20 04:47:38;;;;;;;18.73;3.75;;;;;;;;;;6248237;22;20065;-89
2022/08/20 04:50:08;;;;;;;16.75;3.65;;;;;;;;;;6248996;22;20016;-89
2022/08/20 04:52:41;;;;;;;13.07;3.30;;;;;;;;;;6301797;22;20441;-89
2022/08/20 04:55:07;;;;;;;15.15;3.90;;;;;;;;;;6273847;22;20281;-89
2022/08/20 04:57:37;;;;;;;18.02;3.83;;;;;;;;;;6274284;22;20049;-89
2022/08/20 05:00:15;;;;;;;14.00;2.88;;;;;;;;;;6271433;22;20014;-89
2022/08/20 05:02:41;;;;;;;14.18;3.13;;;;;;;;;;6274141;22;20007;-89
2022/08/20 05:05:07;;;;;;;15.82;3.60;;;;;;;;;;6274212;22;20007;-89
2022/08/20 05:07:37;;;;;;;12.15;3.03;;;;;;;;;;6248938;22;20039;-89
2022/08/20 05:10:04;;;;;;;15.98;3.03;;;;;;;;;;6272854;22;20057;-89
2022/08/20 05:12:30;;;;;;;11.40;3.55;;;;;;;;;;6272171;22;20122;-88
2022/08/20 05:14:57;;;;;;;14.05;3.47;;;;;;;;;;6248748;22;20035;-89
2022/08/20 05:17:23;;;;;;;17.17;3.28;;;;;;;;;;6246959;22;20007;-89
2022/08/20 05:19:51;;;;;;;13.95;3.28;;;;;;;;;;6275015;22;20007;-89
2022/08/20 05:22:17;;;;;;;10.32;2.92;;;;;;;;;;6274010;22;20424;-89
2022/08/20 05:24:43;;;;;;;14.95;3.30;;;;;;;;;;6273453;22;20423;-89
2022/08/20 05:27:09;;;;;;;13.98;3.08;;;;;;;;;;6299147;22;20156;-89
2022/08/20 05:29:35;;;;;;;13.18;3.38;;;;;;;;;;6299509;22;20431;-89
2022/08/20 05:32:02;;;;;;;14.25;3.08;;;;;;;;;;6273751;22;20090;-89
2022/08/20 05:34:28;;;;;;;15.77;3.17;;;;;;;;;;6247065;22;20007;-89
2022/08/20 05:36:54;;;;;;;18.58;3.58;;;;;;;;;;6247584;22;20637;-89
2022/08/20 05:39:21;;;;;;;18.92;4.22;;;;;;;;;;6272450;22;20087;-89
2022/08/20 05:41:49;;;;;;;13.50;3.22;;;;;;;;;;6273445;22;20006;-89
2022/08/20 05:44:15;;;;;;;18.48;3.15;;;;;;;;;;6272821;22;20428;-89
2022/08/20 05:46:42;;;;;;;22.55;3.47;;;;;;;;;;6267319;22;20466;-89
2022/08/20 05:49:09;;;;;;;15.35;3.35;;;;;;;;;;6268226;22;20015;-89
2022/08/20 05:51:36;;;;;;;24.58;3.45;;;;;;;;;;6266611;22;20039;-89
2022/08/20 05:54:02;;;;;;;11.18;3.30;;;;;;;;;;6243934;22;20027;-89
2022/08/20 05:56:29;;;;;;;14.13;2.70;;;;;;;;;;6267939;22;20031;-89
2022/08/20 05:58:55;;;;;;;11.88;3.80;;;;;;;;;;6268832;22;20003;-89
2022/08/20 06:01:21;;;;;;;12.85;2.80;;;;;;;;;;6268267;22;20035;-89
2022/08/20 06:06:33;;;;;;;9.32;2.20;;;;;;;;;;6269052;22;20085;-90
2022/08/20 06:08:59;;;;;;;9.23;2.88;;;;;;;;;;6243145;22;20015;-89
2022/08/20 06:11:25;;;;;;;13.75;2.83;;;;;;;;;;6242510;22;20291;-89
2022/08/20 06:13:51;;;;;;;10.70;2.30;;;;;;;;;;6243749;22;20054;-90
2022/08/20 06:16:17;;;;;;;15.40;2.25;;;;;;;;;;6243050;22;20517;-90
2022/08/20 06:18:43;;;;;;;6.80;1.98;;;;;;;;;;6242553;22;20099;-89
2022/08/20 06:21:09;;;;;;;11.05;1.85;;;;;;;;;;6242358;22;20031;-90
2022/08/20 06:23:35;;;;;;;7.80;2.33;;;;;;;;;;6242391;22;20035;-90
2022/08/20 06:26:02;;;;;;;6.85;1.73;;;;;;;;;;6266769;22;20012;-90
2022/08/20 06:28:28;;;;;;;5.78;1.98;;;;;;;;;;6267281;22;20265;-89
2022/08/20 06:30:54;;;;;;;35.72;14.70;;;;;;;;;;6266748;22;20054;-89
2022/08/20 06:33:27;;;;;;;15.35;5.57;;;;;;;;;;6241943;22;20396;-90
2022/08/20 06:35:54;;;;;;;14.52;3.40;;;;;;;;;;6242349;22;20011;-89
2022/08/20 06:38:20;;;;;;;10.77;1.85;;;;;;;;;;6267426;22;20004;-90
2022/08/20 06:40:47;;;;;;;6.60;1.85;;;;;;;;;;6266711;22;20464;-90
2022/08/20 06:43:13;;;;;;;8.25;1.60;;;;;;;;;;6266238;22;20458;-90
2022/08/20 06:45:39;;;;;;;7.88;1.60;;;;;;;;;;6242295;22;20004;-90
2022/08/20 06:48:07;;;;;;;5.22;1.58;;;;;;;;;;6267705;22;20021;-90
2022/08/20 06:50:38;;;;;;;7.53;1.83;;;;;;;;;;6270050;22;20151;-90
2022/08/20 06:53:04;;;;;;;10.60;2.47;;;;;;;;;;6268920;22;20000;-90
2022/08/20 06:55:31;;;;;;;12.23;2.90;;;;;;;;;;6243599;22;20072;-90
2022/08/20 06:58:02;;;;;;;5.63;2.13;;;;;;;;;;6242229;22;20008;-90
2022/08/20 07:00:30;;;;;;;10.80;1.95;;;;;;;;;;6267642;22;20004;-89
2022/08/20 07:02:58;;;;;;;4.85;1.50;;;;;;;;;;6268326;22;20338;-89
2022/08/20 07:05:25;;;;;;;6.57;1.52;;;;;;;;;;6269672;22;20000;-90
2022/08/20 07:07:51;;;;;;;6.28;1.90;;;;;;;;;;6268022;22;20022;-90
2022/08/20 07:10:18;;;;;;;10.48;1.65;;;;;;;;;;6267664;22;20072;-90
2022/08/20 07:12:45;;;;;;;7.50;1.38;;;;;;;;;;6243292;22;20400;-90
2022/08/20 07:15:12;;;;;;;7.18;1.85;;;;;;;;;;6269680;22;20086;-90
2022/08/20 07:17:38;;;;;;;6.10;1.20;;;;;;;;;;6269372;22;20015;-90
2022/08/20 07:20:09;;;;;;;6.10;1.60;;;;;;;;;;6271695;22;20089;-90
2022/08/20 07:22:35;;;;;;;5.55;1.48;;;;;;;;;;6269211;22;20110;-90
2022/08/20 07:25:03;;;;;;;12.48;1.98;;;;;;;;;;6269682;22;20505;-90
2022/08/20 07:27:29;;;;;;;5.18;1.45;;;;;;;;;;6268752;22;20031;-90
2022/08/20 07:32:39;;;;;;;8.02;1.52;;;;;;;;;;6269944;22;20818;-90
2022/08/20 07:35:07;;;;;;;5.57;1.35;;;;;;;;;;6271179;22;20011;-90
2022/08/20 07:37:41;;;;;;;9.00;1.77;;;;;;;;;;6269253;22;20000;-90
2022/08/20 07:40:09;;;;;;;9.50;1.67;;;;;;;;;;6270886;22;20351;-91
2022/08/20 07:42:38;;;;;;;5.20;1.20;;;;;;;;;;6269800;22;20007;-90
2022/08/20 07:45:05;;;;;;;4.88;1.35;;;;;;;;;;6245634;22;20019;-90
2022/08/20 07:47:34;;;;;;;10.30;1.75;;;;;;;;;;6266640;22;20019;-90
2022/08/20 07:50:01;;;;;;;6.60;1.20;;;;;;;;;;6270963;22;20485;-90
2022/08/20 07:52:27;;;;;;;5.60;1.38;;;;;;;;;;6245615;22;20015;-90
2022/08/20 07:54:53;;;;;;;7.43;1.42;;;;;;;;;;6243935;22;20008;-89
2022/08/20 07:57:19;;;;;;;6.03;1.25;;;;;;;;;;6245638;22;20030;-90
2022/08/20 07:59:45;;;;;;;6.40;1.60;;;;;;;;;;6244022;22;20010;-89
2022/08/20 08:02:12;;;;;;;6.28;1.58;;;;;;;;;;6246304;22;20007;-90
2022/08/20 08:04:38;;;;;;;8.68;1.80;;;;;;;;;;6244165;22;20046;-90
2022/08/20 08:07:05;;;;;;;6.72;1.63;;;;;;;;;;6245106;22;20022;-90
2022/08/20 08:09:31;;;;;;;7.00;1.40;;;;;;;;;;6270438;22;20457;-90
2022/08/20 08:11:59;;;;;;;8.77;1.52;;;;;;;;;;6246041;22;20023;-90
2022/08/20 08:14:28;;;;;;;6.47;1.77;;;;;;;;;;6244593;22;20018;-89
2022/08/20 08:16:56;;;;;;;6.88;1.92;;;;;;;;;;6270296;22;20003;-90
2022/08/20 08:19:23;;;;;;;26.45;1.80;;;;;;;;;;6269426;22;20014;-90
2022/08/20 08:21:49;;;;;;;7.78;1.52;;;;;;;;;;6245672;22;20008;-90
2022/08/20 08:24:16;;;;;;;9.65;1.52;;;;;;;;;;6268318;22;20351;-90
2022/08/20 08:26:42;;;;;;;4.43;1.38;;;;;;;;;;6244653;22;20072;-90
2022/08/20 08:29:08;;;;;;;8.07;1.55;;;;;;;;;;6243237;22;20012;-90
2022/08/20 08:31:35;;;;;;;4.40;1.45;;;;;;;;;;6244770;22;20339;-90
2022/08/20 08:34:01;;;;;;;3.80;1.58;;;;;;;;;;6267740;22;20396;-90
2022/08/20 08:36:27;;;;;;;4.85;1.50;;;;;;;;;;6270086;22;20011;-90
2022/08/20 08:38:54;;;;;;;7.43;1.55;;;;;;;;;;6243631;22;20014;-90
2022/08/20 08:41:31;;;;;;;6.57;1.65;;;;;;;;;;6269503;22;20007;-90
2022/08/20 08:44:09;;;;;;;4.30;1.60;;;;;;;;;;6268543;22;20306;-90
2022/08/20 08:46:39;;;;;;;5.55;1.85;;;;;;;;;;6269248;22;20010;-90
2022/08/20 08:49:12;;;;;;;5.10;1.83;;;;;;;;;;6274640;22;20030;-90
2022/08/20 08:51:44;;;;;;;6.38;1.65;;;;;;;;;;6249865;22;20015;-90
2022/08/20 08:54:15;;;;;;;12.85;1.80;;;;;;;;;;6275723;22;20019;-91
2022/08/20 08:56:42;;;;;;;10.65;1.88;;;;;;;;;;6273648;22;20008;-90
2022/08/20 08:59:09;;;;;;;2.58;1.20;;;;;;;;;;6250884;22;20026;-90
2022/08/20 09:01:41;;;;;;;5.60;1.30;;;;;;;;;;6275161;22;20003;-91
2022/08/20 09:04:08;;;;;;;6.38;2.10;;;;;;;;;;6275007;22;20011;-91
2022/08/20 09:06:35;;;;;;;8.75;1.48;;;;;;;;;;6249211;22;20011;-90
2022/08/20 09:09:03;;;;;;;6.25;1.40;;;;;;;;;;6274918;22;20004;-90
2022/08/20 09:11:30;;;;;;;4.78;1.42;;;;;;;;;;6274924;22;20408;-90
2022/08/20 09:13:57;;;;;;;5.50;1.60;;;;;;;;;;6274187;22;20007;-90
2022/08/20 09:16:24;;;;;;;10.30;1.70;;;;;;;;;;6301818;22;20129;-90
2022/08/20 09:18:51;;;;;;;6.15;1.65;;;;;;;;;;6273645;22;20397;-90
2022/08/20 09:21:17;;;;;;;7.10;1.67;;;;;;;;;;6274805;22;20005;-90
2022/08/20 09:23:44;;;;;;;5.65;1.60;;;;;;;;;;6275255;22;20029;-90
2022/08/20 09:26:10;;;;;;;8.18;1.33;;;;;;;;;;6272697;22;20481;-90
2022/08/20 09:28:36;;;;;;;6.20;1.70;;;;;;;;;;6271561;22;20043;-91
2022/08/20 09:31:03;;;;;;;6.50;1.45;;;;;;;;;;6272962;22;20007;-90
2022/08/20 09:33:29;;;;;;;7.68;1.70;;;;;;;;;;6248752;22;20018;-90
2022/08/20 09:35:55;;;;;;;4.68;1.50;;;;;;;;;;6248378;22;20092;-90
2022/08/20 09:38:21;;;;;;;5.13;1.42;;;;;;;;;;6274677;22;20006;-90
2022/08/20 09:40:47;;;;;;;4.32;1.40;;;;;;;;;;6248029;22;20102;-90
2022/08/20 09:43:13;;;;;;;3.17;1.20;;;;;;;;;;6249277;22;20043;-90
2022/08/20 09:45:39;;;;;;;6.00;1.77;;;;;;;;;;6272453;22;20007;-90
2022/08/20 09:48:05;;;;;;;6.68;1.77;;;;;;;;;;6300302;22;20413;-90
2022/08/20 09:50:33;;;;;;;5.78;1.90;;;;;;;;;;6248579;22;20014;-90
2022/08/20 09:53:00;;;;;;;4.88;1.50;;;;;;;;;;6273775;22;20003;-90
2022/08/20 09:55:36;;;;;;;5.13;1.60;;;;;;;;;;6273461;22;20011;-90
2022/08/20 09:58:05;;;;;;;5.55;2.00;;;;;;;;;;6273236;22;20007;-90
2022/08/20 10:00:31;;;;;;;5.93;1.20;;;;;;;;;;6273413;22;20004;-90
2022/08/20 10:02:59;;;;;;;9.52;2.13;;;;;;;;;;6249335;22;20599;-90
2022/08/20 10:05:25;;;;;;;8.48;1.85;;;;;;;;;;6248112;22;20469;-90
2022/08/20 10:07:51;;;;;;;6.18;1.70;;;;;;;;;;6273812;22;20347;-90
2022/08/20 10:10:17;;;;;;;5.95;1.70;;;;;;;;;;6248027;22;20482;-90
2022/08/20 10:12:44;;;;;;;7.00;1.63;;;;;;;;;;6248995;22;20007;-90
2022/08/20 10:15:11;;;;;;;4.20;2.05;;;;;;;;;;6248213;22;20062;-90
2022/08/20 10:17:40;;;;;;;6.00;2.05;;;;;;;;;;6272046;22;20014;-90
2022/08/20 10:20:07;;;;;;;6.25;1.73;;;;;;;;;;6274392;22;20362;-90
2022/08/20 10:22:34;;;;;;;5.80;1.70;;;;;;;;;;6273355;22;20003;-90
2022/08/20 10:25:00;;;;;;;13.55;2.10;;;;;;;;;;6273685;22;20007;-90
2022/08/20 10:27:26;;;;;;;10.57;1.92;;;;;;;;;;6248244;22;20474;-90
2022/08/20 10:29:52;;;;;;;9.30;2.33;;;;;;;;;;6301974;22;20433;-90
2022/08/20 10:32:18;;;;;;;9.50;2.45;;;;;;;;;;6245547;22;20011;-89
2022/08/20 10:34:45;;;;;;;5.13;1.77;;;;;;;;;;6273656;22;20668;-89
2022/08/20 10:37:19;;;;;;;7.90;2.13;;;;;;;;;;6272731;22;20033;-90
2022/08/20 10:39:46;;;;;;;5.65;1.70;;;;;;;;;;6274682;22;20003;-90
2022/08/20 10:42:12;;;;;;;12.40;1.60;;;;;;;;;;6300521;22;20052;-90
2022/08/20 10:44:38;;;;;;;10.50;1.98;;;;;;;;;;6273446;22;20461;-89
2022/08/20 10:47:24;;;;;;;6.50;2.33;;;;;;;;;;6246537;22;20048;-90
2022/08/20 10:49:52;;;;;;;6.75;2.25;;;;;;;;;;6236592;23;20531;-89
2022/08/20 10:52:18;;;;;;;7.80;2.17;;;;;;;;;;6237471;23;20241;-89
2022/08/20 10:54:45;;;;;;;7.22;1.70;;;;;;;;;;6238799;23;20011;-90
2022/08/20 10:57:18;;;;;;;3.35;1.55;;;;;;;;;;6212009;23;20070;-90
2022/08/20 10:59:46;;;;;;;2.90;1.50;;;;;;;;;;6237329;23;20008;-90
2022/08/20 11:02:12;;;;;;;8.88;2.30;;;;;;;;;;6240125;23;20095;-89
2022/08/20 11:04:39;;;;;;;6.15;1.65;;;;;;;;;;6237218;23;20016;-90
2022/08/20 11:07:11;;;;;;;8.85;1.58;;;;;;;;;;6212135;23;20102;-90
2022/08/20 11:09:38;;;;;;;8.93;2.50;;;;;;;;;;6238710;23;20016;-89
2022/08/20 11:12:04;;;;;;;4.68;1.80;;;;;;;;;;6238822;23;20012;-89
2022/08/20 11:14:30;;;;;;;4.70;1.60;;;;;;;;;;6236892;23;20043;-90
2022/08/20 11:16:56;;;;;;;10.13;2.47;;;;;;;;;;6213104;23;20336;-90
2022/08/20 11:19:22;;;;;;;9.88;2.15;;;;;;;;;;6211471;23;20012;-90
2022/08/20 11:21:48;;;;;;;4.95;1.90;;;;;;;;;;6237213;23;20425;-90
2022/08/20 11:24:14;;;;;;;7.55;1.90;;;;;;;;;;6236127;23;20032;-90
2022/08/20 11:26:40;;;;;;;11.93;2.30;;;;;;;;;;6211874;23;20177;-90
2022/08/20 11:29:06;;;;;;;8.13;1.98;;;;;;;;;;6235403;23;20012;-89
2022/08/20 11:31:32;;;;;;;12.70;2.15;;;;;;;;;;6212581;23;20031;-90
2022/08/20 11:33:58;;;;;;;8.75;1.70;;;;;;;;;;6236466;23;20008;-90
2022/08/20 11:36:25;;;;;;;4.25;1.48;;;;;;;;;;6213254;23;20352;-90
2022/08/20 11:38:51;;;;;;;5.40;1.95;;;;;;;;;;6212095;23;20023;-90
2022/08/20 11:41:17;;;;;;;5.65;1.98;;;;;;;;;;6238688;23;20008;-89
2022/08/20 11:43:43;;;;;;;11.88;2.30;;;;;;;;;;6212266;23;20008;-89
2022/08/20 11:46:09;;;;;;;7.78;2.97;;;;;;;;;;6212217;23;20020;-90
2022/08/20 11:48:35;;;;;;;7.53;2.15;;;;;;;;;;6236715;22;20019;-89
2022/08/20 11:51:01;;;;;;;7.90;1.83;;;;;;;;;;6248529;22;20412;-89
2022/08/20 11:53:27;;;;;;;5.03;1.70;;;;;;;;;;6246937;22;20351;-90
2022/08/20 11:55:53;;;;;;;9.07;2.10;;;;;;;;;;6247694;22;20007;-89
2022/08/20 11:58:19;;;;;;;4.65;1.88;;;;;;;;;;6271648;22;20081;-89
2022/08/20 12:00:52;;;;;;;4.88;1.92;;;;;;;;;;6249200;22;20014;-90
2022/08/20 12:03:18;;;;;;;8.95;3.00;;;;;;;;;;6250534;22;20466;-90
2022/08/20 12:05:45;;;;;;;8.30;2.25;;;;;;;;;;6249541;22;19999;-90
2022/08/20 12:08:13;;;;;;;6.25;2.40;;;;;;;;;;6250141;22;20035;-89
2022/08/20 12:10:39;;;;;;;7.38;2.00;;;;;;;;;;6273027;22;20433;-90
2022/08/20 12:13:06;;;;;;;6.20;1.58;;;;;;;;;;6277046;22;20007;-90
2022/08/20 12:15:36;;;;;;;8.88;1.70;;;;;;;;;;6274241;22;20003;-90
2022/08/20 12:18:06;;;;;;;8.32;1.90;;;;;;;;;;6249344;22;20018;-89
2022/08/20 12:20:32;;;;;;;5.35;2.10;;;;;;;;;;6274421;22;20007;-90
2022/08/20 12:22:58;;;;;;;6.40;1.60;;;;;;;;;;6250216;22;20009;-89
2022/08/20 12:25:24;;;;;;;12.27;1.60;;;;;;;;;;6273031;22;20023;-90
2022/08/20 12:27:51;;;;;;;5.30;1.40;;;;;;;;;;6275089;22;20015;-89
2022/08/20 12:30:18;;;;;;;8.90;1.83;;;;;;;;;;6250208;22;20007;-89
2022/08/20 12:32:44;;;;;;;6.10;1.77;;;;;;;;;;6274159;22;20011;-89
2022/08/20 12:35:12;;;;;;;11.90;3.10;;;;;;;;;;6274940;22;20491;-89
2022/08/20 12:37:38;;;;;;;9.10;2.35;;;;;;;;;;6273795;22;20442;-89
2022/08/20 12:40:05;;;;;;;12.02;3.10;;;;;;;;;;6276038;22;20004;-89
2022/08/20 12:42:31;;;;;;;4.82;1.75;;;;;;;;;;6247648;22;20050;-90
2022/08/20 12:44:57;;;;;;;11.32;2.55;;;;;;;;;;6274831;22;20514;-89
2022/08/20 12:47:28;;;;;;;8.65;1.95;;;;;;;;;;6271429;22;20061;-89
2022/08/20 12:49:56;;;;;;;7.18;1.90;;;;;;;;;;6276200;22;20041;-89
2022/08/20 12:52:23;;;;;;;6.70;1.88;;;;;;;;;;6272463;22;20301;-90
2022/08/20 12:54:49;;;;;;;6.78;1.80;;;;;;;;;;6273552;22;20313;-90
2022/08/20 12:57:16;;;;;;;10.15;1.95;;;;;;;;;;6272678;22;20038;-90
2022/08/20 12:59:42;;;;;;;6.55;1.60;;;;;;;;;;6272851;22;20259;-90
2022/08/20 13:02:08;;;;;;;8.38;2.05;;;;;;;;;;6248309;22;20007;-89
2022/08/20 13:04:34;;;;;;;8.60;2.80;;;;;;;;;;6247720;22;20015;-90
2022/08/20 13:07:01;;;;;;;6.72;2.50;;;;;;;;;;6274056;22;19999;-90
2022/08/20 13:09:27;;;;;;;7.07;1.95;;;;;;;;;;6248442;22;20011;-89
2022/08/20 13:11:53;;;;;;;5.32;1.88;;;;;;;;;;6249135;22;20435;-89
2022/08/20 13:14:19;;;;;;;6.35;1.58;;;;;;;;;;6273028;22;20057;-89
2022/08/20 13:16:45;;;;;;;9.68;1.90;;;;;;;;;;6274497;22;20011;-89
2022/08/20 13:19:11;;;;;;;9.02;2.25;;;;;;;;;;6249087;22;20019;-90
2022/08/20 13:21:37;;;;;;;6.28;1.95;;;;;;;;;;6245379;22;20011;-89
2022/08/20 13:24:03;;;;;;;5.13;1.70;;;;;;;;;;6246605;22;20362;-89
2022/08/20 13:26:29;;;;;;;6.93;2.28;;;;;;;;;;6248274;22;20007;-89
2022/08/20 13:28:55;;;;;;;5.47;2.03;;;;;;;;;;6248235;22;20110;-89
2022/08/20 13:31:21;;;;;;;7.15;2.45;;;;;;;;;;6274427;22;20304;-90
2022/08/20 13:33:47;;;;;;;8.95;2.78;;;;;;;;;;6248878;22;20022;-89
2022/08/20 13:36:13;;;;;;;9.20;2.80;;;;;;;;;;6273783;22;20005;-90
2022/08/20 13:38:40;;;;;;;4.65;2.13;;;;;;;;;;6274659;22;20014;-89
2022/08/20 13:41:06;;;;;;;7.82;1.88;;;;;;;;;;6274194;22;20003;-89
2022/08/20 13:43:32;;;;;;;12.13;2.17;;;;;;;;;;6247593;22;20011;-90
2022/08/20 13:45:58;;;;;;;6.57;1.88;;;;;;;;;;6246191;22;20008;-89
2022/08/20 13:48:24;;;;;;;8.57;1.73;;;;;;;;;;6247917;22;20019;-89
2022/08/20 13:50:50;;;;;;;6.55;2.10;;;;;;;;;;6246647;22;20007;-90
2022/08/20 13:53:16;;;;;;;10.68;2.25;;;;;;;;;;6275369;22;20003;-89
2022/08/20 13:55:42;;;;;;;13.27;2.35;;;;;;;;;;6248246;22;20023;-89
2022/08/20 13:58:08;;;;;;;4.68;2.08;;;;;;;;;;6298935;22;19995;-89
2022/08/20 14:00:35;;;;;;;5.85;1.95;;;;;;;;;;6246581;22;20456;-89
2022/08/20 14:03:02;;;;;;;7.18;2.72;;;;;;;;;;6271916;22;20165;-89
2022/08/20 14:05:28;;;;;;;7.82;2.28;;;;;;;;;;6273486;22;20003;-89
2022/08/20 14:07:54;;;;;;;8.07;2.15;;;;;;;;;;6248837;22;20015;-89
2022/08/20 14:10:23;;;;;;;7.25;2.13;;;;;;;;;;6272360;22;20011;-90
2022/08/20 14:12:49;;;;;;;4.47;1.85;;;;;;;;;;6300440;22;20026;-89
2022/08/20 14:15:16;;;;;;;8.52;2.03;;;;;;;;;;6274171;22;20011;-89
2022/08/20 14:17:43;;;;;;;5.40;2.22;;;;;;;;;;6272826;22;20074;-89
2022/08/20 14:20:13;;;;;;;7.90;1.98;;;;;;;;;;6300626;22;20327;-90
2022/08/20 14:22:39;;;;;;;6.45;2.83;;;;;;;;;;6272523;22;20011;-91
2022/08/20 14:25:06;;;;;;;8.65;2.47;;;;;;;;;;6247494;22;20503;-89
2022/08/20 14:27:33;;;;;;;6.30;1.70;;;;;;;;;;6246712;22;20007;-90
2022/08/20 14:29:59;;;;;;;17.05;3.60;;;;;;;;;;6273310;22;20011;-89
2022/08/20 14:32:26;;;;;;;8.07;2.15;;;;;;;;;;6272680;22;20090;-90
2022/08/20 14:34:52;;;;;;;8.63;2.35;;;;;;;;;;6247707;22;20069;-89
2022/08/20 14:37:18;;;;;;;7.18;1.88;;;;;;;;;;6272258;22;20010;-89
2022/08/20 14:39:45;;;;;;;6.95;1.60;;;;;;;;;;6272825;22;20007;-89
2022/08/20 14:42:11;;;;;;;6.25;1.55;;;;;;;;;;6273964;22;20011;-89
2022/08/20 14:44:44;;;;;;;5.13;2.28;;;;;;;;;;6247117;22;20011;-89